createdAt,value
2018-12-31T00:01:11.202Z,6.20
2018-12-31T00:03:39.783Z,6.20
2018-12-31T00:06:08.330Z,6.20
2018-12-31T00:08:36.900Z,6.20
2018-12-31T00:11:05.440Z,6.20
2018-12-31T00:13:34.006Z,6.20
2018-12-31T00:16:02.554Z,6.20
2018-12-31T00:18:31.404Z,6.20
2018-12-31T00:20:59.870Z,6.20
2018-12-31T00:23:28.437Z,6.20
2018-12-31T00:25:56.982Z,6.20
2018-12-31T00:28:25.551Z,6.30
2018-12-31T00:30:54.091Z,6.20
2018-12-31T00:33:22.659Z,6.30
2018-12-31T00:35:51.130Z,6.30
2018-12-31T00:38:19.698Z,6.30
2018-12-31T00:40:48.242Z,6.40
2018-12-31T00:43:16.743Z,6.30
2018-12-31T00:45:45.283Z,6.30
2018-12-31T00:48:13.853Z,6.20
2018-12-31T00:50:42.394Z,6.30
2018-12-31T00:53:10.962Z,6.30
2018-12-31T00:55:39.503Z,6.20
2018-12-31T00:58:08.048Z,6.30
2018-12-31T01:00:36.618Z,6.30
2018-12-31T01:03:05.225Z,6.30
2018-12-31T01:05:33.790Z,6.30
2018-12-31T01:08:02.330Z,6.20
2018-12-31T01:10:30.908Z,6.20
2018-12-31T01:12:59.447Z,6.20
2018-12-31T01:15:28.084Z,6.20
2018-12-31T01:17:56.625Z,6.20
2018-12-31T01:20:25.365Z,6.20
2018-12-31T01:22:53.907Z,6.20
2018-12-31T01:25:22.402Z,6.10
2018-12-31T01:27:50.879Z,6.20
2018-12-31T01:30:19.830Z,6.10
2018-12-31T01:32:48.298Z,6.20
2018-12-31T01:35:16.875Z,6.30
2018-12-31T01:37:45.442Z,6.20
2018-12-31T01:40:13.995Z,6.10
2018-12-31T01:42:42.534Z,6.20
2018-12-31T01:45:11.123Z,6.10
2018-12-31T01:47:39.666Z,6.20
2018-12-31T01:50:08.244Z,6.20
2018-12-31T01:52:36.781Z,6.30
2018-12-31T01:55:05.787Z,6.30
2018-12-31T01:57:34.326Z,6.20
2018-12-31T02:00:02.906Z,6.20
2018-12-31T02:02:31.442Z,6.20
2018-12-31T02:05:00.014Z,6.20
2018-12-31T02:07:28.561Z,6.30
2018-12-31T02:09:57.135Z,6.20
2018-12-31T02:12:25.679Z,6.10
2018-12-31T02:14:54.245Z,6.10
2018-12-31T02:17:22.793Z,6.10
2018-12-31T02:19:51.344Z,6.10
2018-12-31T02:22:19.889Z,6.10
2018-12-31T02:24:48.494Z,6.30
2018-12-31T02:27:17.079Z,6.20
2018-12-31T02:29:45.618Z,6.30
2018-12-31T02:32:14.573Z,6.30
2018-12-31T02:34:43.047Z,6.30
2018-12-31T02:37:11.678Z,6.20
2018-12-31T02:39:40.218Z,6.20
2018-12-31T02:42:08.706Z,6.20
2018-12-31T02:44:37.173Z,6.20
2018-12-31T02:47:05.734Z,6.20
2018-12-31T02:49:34.274Z,6.20
2018-12-31T02:52:02.774Z,6.20
2018-12-31T02:54:31.377Z,6.30
2018-12-31T02:56:59.877Z,6.20
2018-12-31T02:59:28.333Z,6.20
2018-12-31T03:01:56.830Z,6.20
2018-12-31T03:04:25.366Z,6.20
2018-12-31T03:06:53.930Z,6.20
2018-12-31T03:09:22.400Z,6.20
2018-12-31T03:11:50.967Z,6.20
2018-12-31T03:14:19.505Z,6.20
2018-12-31T03:16:48.071Z,6.20
2018-12-31T03:19:16.613Z,6.20
2018-12-31T03:21:45.442Z,6.20
2018-12-31T03:24:13.982Z,6.20
2018-12-31T03:26:42.816Z,6.20
2018-12-31T03:29:11.357Z,6.20
2018-12-31T03:31:39.915Z,6.20
2018-12-31T03:34:08.453Z,6.20
2018-12-31T03:36:36.938Z,6.30
2018-12-31T03:39:07.286Z,6.40
2018-12-31T03:41:36.122Z,6.50
2018-12-31T03:44:04.734Z,6.50
2018-12-31T03:46:33.220Z,6.40
2018-12-31T03:49:02.086Z,6.40
2018-12-31T03:51:30.724Z,6.50
2018-12-31T03:53:59.182Z,6.40
2018-12-31T03:56:27.670Z,6.40
2018-12-31T03:58:56.135Z,6.30
2018-12-31T04:01:24.720Z,6.30
2018-12-31T04:03:53.575Z,6.30
2018-12-31T04:06:22.147Z,6.30
2018-12-31T04:08:50.693Z,6.10
2018-12-31T04:11:19.230Z,6.30
2018-12-31T04:13:47.793Z,6.30
2018-12-31T04:16:16.250Z,6.20
2018-12-31T04:18:44.749Z,6.20
2018-12-31T04:21:13.277Z,6.10
2018-12-31T04:23:41.757Z,6.20
2018-12-31T04:26:10.223Z,6.20
2018-12-31T04:28:38.786Z,6.30
2018-12-31T04:31:07.251Z,6.40
2018-12-31T04:33:35.819Z,6.30
2018-12-31T04:36:04.350Z,6.30
2018-12-31T04:38:32.918Z,6.40
2018-12-31T04:41:01.455Z,6.30
2018-12-31T04:43:30.038Z,6.30
2018-12-31T04:45:58.558Z,6.30
2018-12-31T04:48:27.122Z,6.40
2018-12-31T04:50:55.989Z,6.60
2018-12-31T04:53:24.556Z,6.40
2018-12-31T04:55:53.096Z,6.40
2018-12-31T04:58:23.115Z,6.20
2018-12-31T05:00:51.850Z,6.30
2018-12-31T05:03:20.419Z,6.30
2018-12-31T05:05:49.216Z,6.20
2018-12-31T05:08:18.103Z,6.10
2018-12-31T05:10:46.638Z,6.20
2018-12-31T05:13:15.139Z,6.30
2018-12-31T05:15:43.676Z,6.20
2018-12-31T05:18:12.238Z,6.20
2018-12-31T05:20:40.769Z,6.30
2018-12-31T05:23:09.258Z,6.30
2018-12-31T05:25:37.728Z,6.30
2018-12-31T05:28:06.290Z,6.20
2018-12-31T05:30:34.829Z,6.30
2018-12-31T05:33:03.330Z,6.20
2018-12-31T05:35:31.861Z,6.20
2018-12-31T05:38:00.616Z,6.10
2018-12-31T05:40:29.169Z,6.20
2018-12-31T05:42:57.745Z,6.20
2018-12-31T05:45:26.290Z,6.30
2018-12-31T05:47:54.786Z,6.30
2018-12-31T05:50:23.319Z,6.20
2018-12-31T05:52:51.885Z,6.20
2018-12-31T05:55:20.346Z,6.20
2018-12-31T05:57:48.814Z,6.20
2018-12-31T06:00:17.450Z,6.20
2018-12-31T06:02:45.996Z,6.20
2018-12-31T06:05:14.626Z,6.30
2018-12-31T06:07:43.161Z,6.20
2018-12-31T06:10:11.732Z,6.20
2018-12-31T06:12:40.266Z,6.30
2018-12-31T06:15:08.754Z,6.30
2018-12-31T06:17:37.282Z,6.40
2018-12-31T06:20:05.914Z,6.40
2018-12-31T06:22:34.515Z,6.40
2018-12-31T06:25:03.025Z,6.50
2018-12-31T06:27:31.554Z,6.50
2018-12-31T06:30:02.094Z,6.40
2018-12-31T06:32:30.306Z,6.40
2018-12-31T06:34:58.866Z,6.40
2018-12-31T06:37:27.335Z,6.20
2018-12-31T06:39:55.902Z,6.30
2018-12-31T06:42:24.471Z,6.20
2018-12-31T06:44:53.033Z,6.20
2018-12-31T06:47:21.494Z,6.30
2018-12-31T06:49:49.992Z,6.40
2018-12-31T06:52:18.531Z,6.50
2018-12-31T06:54:47.090Z,6.50
2018-12-31T06:57:15.568Z,6.40
2018-12-31T06:59:44.195Z,6.50
2018-12-31T07:02:12.726Z,6.40
2018-12-31T07:04:41.290Z,6.30
2018-12-31T07:07:09.834Z,6.40
2018-12-31T07:09:38.417Z,6.40
2018-12-31T07:12:06.938Z,6.30
2018-12-31T07:14:35.510Z,6.40
2018-12-31T07:17:04.125Z,6.30
2018-12-31T07:19:32.687Z,6.30
2018-12-31T07:22:01.228Z,6.20
2018-12-31T07:24:29.794Z,6.10
2018-12-31T07:26:58.335Z,6.20
2018-12-31T07:29:26.906Z,6.10
2018-12-31T07:31:55.446Z,6.30
2018-12-31T07:34:24.005Z,6.30
2018-12-31T07:36:52.465Z,6.20
2018-12-31T07:39:20.929Z,6.10
2018-12-31T07:41:49.423Z,6.00
2018-12-31T07:44:17.958Z,6.00
2018-12-31T07:46:46.517Z,6.10
2018-12-31T07:49:15.057Z,6.10
2018-12-31T07:51:43.627Z,6.10
2018-12-31T07:54:12.171Z,6.10
2018-12-31T07:56:40.734Z,6.10
2018-12-31T07:59:09.274Z,6.00
2018-12-31T08:01:37.846Z,6.00
2018-12-31T08:04:06.383Z,6.10
2018-12-31T08:06:34.942Z,6.10
2018-12-31T08:09:04.854Z,6.10
2018-12-31T08:11:33.420Z,6.10
2018-12-31T08:14:01.959Z,6.30
2018-12-31T08:16:30.518Z,6.30
2018-12-31T08:18:58.982Z,6.30
2018-12-31T08:21:27.558Z,6.40
2018-12-31T08:23:56.098Z,6.70
2018-12-31T08:26:24.663Z,6.70
2018-12-31T08:28:53.265Z,6.60
2018-12-31T08:31:21.758Z,6.50
2018-12-31T08:33:50.297Z,6.60
2018-12-31T08:36:18.863Z,6.60
2018-12-31T08:38:47.403Z,6.60
2018-12-31T08:41:15.979Z,6.70
2018-12-31T08:43:44.515Z,6.60
2018-12-31T08:46:13.078Z,6.50
2018-12-31T08:48:41.606Z,6.60
2018-12-31T08:51:10.098Z,6.60
2018-12-31T08:53:38.634Z,6.70
2018-12-31T08:56:07.146Z,6.80
2018-12-31T08:58:35.750Z,6.80
2018-12-31T09:01:04.241Z,6.90
2018-12-31T09:03:32.778Z,7.10
2018-12-31T09:06:01.338Z,7.10
2018-12-31T09:08:29.874Z,7.10
2018-12-31T09:10:58.371Z,7.00
2018-12-31T09:13:26.925Z,7.10
2018-12-31T09:15:55.414Z,7.10
2018-12-31T09:18:23.955Z,7.20
2018-12-31T09:20:52.515Z,7.30
2018-12-31T09:23:20.980Z,7.30
2018-12-31T09:25:49.521Z,7.40
2018-12-31T09:28:18.083Z,7.60
2018-12-31T09:30:46.648Z,7.60
2018-12-31T09:33:15.205Z,7.70
2018-12-31T09:35:43.749Z,7.70
2018-12-31T09:38:12.237Z,7.80
2018-12-31T09:40:40.778Z,7.80
2018-12-31T09:43:09.342Z,7.80
2018-12-31T09:45:37.874Z,7.80
2018-12-31T09:48:06.438Z,7.90
2018-12-31T09:50:34.982Z,7.90
2018-12-31T09:53:03.478Z,8.00
2018-12-31T09:55:32.026Z,8.00
2018-12-31T09:58:00.592Z,8.20
2018-12-31T10:00:29.410Z,8.10
2018-12-31T10:02:57.954Z,8.10
2018-12-31T10:05:26.494Z,8.20
2018-12-31T10:07:55.058Z,8.20
2018-12-31T10:10:23.599Z,8.20
2018-12-31T10:12:52.161Z,8.30
2018-12-31T10:15:20.622Z,8.30
2018-12-31T10:17:49.115Z,8.30
2018-12-31T10:20:17.653Z,8.30
2018-12-31T10:22:46.221Z,8.20
2018-12-31T10:25:14.757Z,8.30
2018-12-31T10:27:43.318Z,8.20
2018-12-31T10:30:11.780Z,8.30
2018-12-31T10:32:40.270Z,8.20
2018-12-31T10:35:08.803Z,8.20
2018-12-31T10:37:37.294Z,8.30
2018-12-31T10:40:08.674Z,8.40
2018-12-31T10:42:37.250Z,8.40
2018-12-31T10:45:05.926Z,8.40
2018-12-31T10:47:34.490Z,8.40
2018-12-31T10:50:03.358Z,8.40
2018-12-31T10:52:31.917Z,8.40
2018-12-31T10:55:00.454Z,8.30
2018-12-31T10:57:28.942Z,8.40
2018-12-31T10:59:57.485Z,8.50
2018-12-31T11:02:26.023Z,8.50
2018-12-31T11:04:54.956Z,8.60
2018-12-31T11:07:23.590Z,8.60
2018-12-31T11:09:52.147Z,8.60
2018-12-31T11:12:20.677Z,8.70
2018-12-31T11:14:49.234Z,8.70
2018-12-31T11:17:17.719Z,8.80
2018-12-31T11:19:46.530Z,8.80
2018-12-31T11:22:15.065Z,8.80
2018-12-31T11:24:43.631Z,8.80
2018-12-31T11:27:12.166Z,8.90
2018-12-31T11:29:40.730Z,8.90
2018-12-31T11:32:09.269Z,8.90
2018-12-31T11:34:37.769Z,8.90
2018-12-31T11:37:06.490Z,8.90
2018-12-31T11:39:35.056Z,8.90
2018-12-31T11:42:03.592Z,8.90
2018-12-31T11:44:32.157Z,8.90
2018-12-31T11:47:00.618Z,8.80
2018-12-31T11:49:29.155Z,8.90
2018-12-31T11:51:57.706Z,9.00
2018-12-31T11:54:26.266Z,9.00
2018-12-31T11:56:54.802Z,9.00
2018-12-31T11:59:23.370Z,9.00
2018-12-31T12:01:51.916Z,8.90
2018-12-31T12:04:20.481Z,9.00
2018-12-31T12:06:49.018Z,9.10
2018-12-31T12:09:17.942Z,9.10
2018-12-31T12:11:46.482Z,9.10
2018-12-31T12:14:15.038Z,9.10
2018-12-31T12:16:43.581Z,9.10
2018-12-31T12:19:12.145Z,9.10
2018-12-31T12:21:40.685Z,9.10
2018-12-31T12:24:09.250Z,9.20
2018-12-31T12:26:37.792Z,9.20
2018-12-31T12:29:06.356Z,9.20
2018-12-31T12:31:35.095Z,9.20
2018-12-31T12:34:03.658Z,9.20
2018-12-31T12:36:32.190Z,9.20
2018-12-31T12:39:00.767Z,9.10
2018-12-31T12:41:29.310Z,9.20
2018-12-31T12:43:58.141Z,9.30
2018-12-31T12:46:27.058Z,9.30
2018-12-31T12:48:55.521Z,9.30
2018-12-31T12:51:24.081Z,9.40
2018-12-31T12:53:52.617Z,9.40
2018-12-31T12:56:21.482Z,9.50
2018-12-31T12:58:50.373Z,9.40
2018-12-31T13:01:18.929Z,9.40
2018-12-31T13:03:47.474Z,9.40
2018-12-31T13:06:16.320Z,9.40
2018-12-31T13:08:45.161Z,9.50
2018-12-31T13:11:13.730Z,9.50
2018-12-31T13:13:42.267Z,9.50
2018-12-31T13:16:10.838Z,9.60
2018-12-31T13:18:39.377Z,9.60
2018-12-31T13:21:08.350Z,9.60
2018-12-31T13:23:36.886Z,9.60
2018-12-31T13:26:06.318Z,9.60
2018-12-31T13:28:34.848Z,9.60
2018-12-31T13:31:03.418Z,9.60
2018-12-31T13:33:32.366Z,9.60
2018-12-31T13:36:00.934Z,9.60
2018-12-31T13:38:29.477Z,9.60
2018-12-31T13:40:58.049Z,9.60
2018-12-31T13:43:26.578Z,9.60
2018-12-31T13:45:55.146Z,9.60
2018-12-31T13:48:23.685Z,9.50
2018-12-31T13:50:52.249Z,9.30
2018-12-31T13:53:20.802Z,9.40
2018-12-31T13:55:49.365Z,9.40
2018-12-31T13:58:18.255Z,9.30
2018-12-31T14:00:46.828Z,9.40
2018-12-31T14:03:17.574Z,9.40
2018-12-31T14:05:45.570Z,9.30
2018-12-31T14:08:14.117Z,9.50
2018-12-31T14:10:42.678Z,9.50
2018-12-31T14:13:11.217Z,9.60
2018-12-31T14:15:39.781Z,9.60
2018-12-31T14:18:08.323Z,9.60
2018-12-31T14:20:36.886Z,9.70
2018-12-31T14:23:05.429Z,9.70
2018-12-31T14:25:34.005Z,9.70
2018-12-31T14:28:02.551Z,9.70
2018-12-31T14:30:31.201Z,9.70
2018-12-31T14:32:59.725Z,9.60
2018-12-31T14:35:28.270Z,9.70
2018-12-31T14:37:56.838Z,9.70
2018-12-31T14:40:25.373Z,9.60
2018-12-31T14:42:53.982Z,9.60
2018-12-31T14:45:22.476Z,9.40
2018-12-31T14:47:51.306Z,9.40
2018-12-31T14:50:19.833Z,9.50
2018-12-31T14:52:48.334Z,9.50
2018-12-31T14:55:16.870Z,9.40
2018-12-31T14:57:45.429Z,9.50
2018-12-31T15:00:13.969Z,9.60
2018-12-31T15:02:42.838Z,9.50
2018-12-31T15:05:11.445Z,9.50
2018-12-31T15:07:40.078Z,9.50
2018-12-31T15:10:08.751Z,9.50
2018-12-31T15:12:37.250Z,9.30
2018-12-31T15:15:07.629Z,9.30
2018-12-31T15:17:36.193Z,9.40
2018-12-31T15:20:07.141Z,9.40
2018-12-31T15:22:35.702Z,9.40
2018-12-31T15:25:04.720Z,9.30
2018-12-31T15:27:33.490Z,9.30
2018-12-31T15:30:02.026Z,9.30
2018-12-31T15:32:30.590Z,9.30
2018-12-31T15:34:59.130Z,9.30
2018-12-31T15:37:27.867Z,9.20
2018-12-31T15:39:56.573Z,9.00
2018-12-31T15:42:25.133Z,9.00
2018-12-31T15:44:54.147Z,8.90
2018-12-31T15:47:22.714Z,8.90
2018-12-31T15:49:51.309Z,8.80
2018-12-31T15:52:20.542Z,8.80
2018-12-31T15:54:49.084Z,8.80
2018-12-31T15:57:17.647Z,9.10
2018-12-31T15:59:46.250Z,9.20
2018-12-31T16:02:14.860Z,9.20
2018-12-31T16:04:43.359Z,9.20
2018-12-31T16:07:11.927Z,9.20
2018-12-31T16:09:40.462Z,9.20
2018-12-31T16:12:09.003Z,9.10
2018-12-31T16:14:37.565Z,9.10
2018-12-31T16:17:06.102Z,9.10
2018-12-31T16:19:34.670Z,8.80
2018-12-31T16:22:03.275Z,8.80
2018-12-31T16:24:31.881Z,8.70
2018-12-31T16:27:00.378Z,8.80
2018-12-31T16:29:29.018Z,8.70
2018-12-31T16:31:57.778Z,8.90
2018-12-31T16:34:26.346Z,8.70
2018-12-31T16:36:54.874Z,8.80
2018-12-31T16:39:23.458Z,8.90
2018-12-31T16:41:51.993Z,8.90
2018-12-31T16:44:21.032Z,8.80
2018-12-31T16:46:49.569Z,8.70
2018-12-31T16:49:18.098Z,8.60
2018-12-31T16:51:46.690Z,8.60
2018-12-31T16:54:16.078Z,8.50
2018-12-31T16:57:05.240Z,8.60
2018-12-31T16:59:33.894Z,8.50
2018-12-31T17:02:02.361Z,8.70
2018-12-31T17:04:30.899Z,8.80
2018-12-31T17:06:59.782Z,8.70
2018-12-31T17:09:28.369Z,8.70
2018-12-31T17:11:56.893Z,8.70
2018-12-31T17:14:25.484Z,8.70
2018-12-31T17:16:54.061Z,8.60
2018-12-31T17:19:22.626Z,8.60
2018-12-31T17:21:51.198Z,8.60
2018-12-31T17:24:19.734Z,8.60
2018-12-31T17:26:48.274Z,8.50
2018-12-31T17:29:16.858Z,8.40
2018-12-31T17:31:45.442Z,8.30
2018-12-31T17:34:13.977Z,8.20
2018-12-31T17:36:42.558Z,8.20
2018-12-31T17:39:11.157Z,8.30
2018-12-31T17:41:39.682Z,8.20
2018-12-31T17:44:08.256Z,8.20
2018-12-31T17:46:37.002Z,8.30
2018-12-31T17:49:05.602Z,8.20
2018-12-31T17:51:34.129Z,8.30
2018-12-31T17:54:02.706Z,8.40
2018-12-31T17:56:31.242Z,8.40
2018-12-31T17:59:00.138Z,8.40
2018-12-31T18:01:28.960Z,8.30
2018-12-31T18:03:57.541Z,8.30
2018-12-31T18:06:26.132Z,8.10
2018-12-31T18:08:54.716Z,7.80
2018-12-31T18:11:23.294Z,7.80
2018-12-31T18:13:51.894Z,7.80
2018-12-31T18:16:20.434Z,7.80
2018-12-31T18:18:48.970Z,7.70
2018-12-31T18:21:17.557Z,7.80
2018-12-31T18:23:46.098Z,7.90
2018-12-31T18:26:14.682Z,7.90
2018-12-31T18:28:43.223Z,8.00
2018-12-31T18:31:11.815Z,8.00
2018-12-31T18:33:40.347Z,8.10
2018-12-31T18:36:09.909Z,7.90
2018-12-31T18:38:38.449Z,7.80
2018-12-31T18:41:07.186Z,7.70
2018-12-31T18:43:35.718Z,7.70
2018-12-31T18:46:04.333Z,7.90
2018-12-31T18:48:32.994Z,8.10
2018-12-31T18:51:01.752Z,8.00
2018-12-31T18:53:33.031Z,8.00
2018-12-31T18:56:01.658Z,7.80
2018-12-31T18:58:31.827Z,7.90
2018-12-31T19:01:00.398Z,7.90
2018-12-31T19:03:29.438Z,7.80
2018-12-31T19:05:58.036Z,7.70
2018-12-31T19:08:26.578Z,7.70
2018-12-31T19:10:55.123Z,7.70
2018-12-31T19:13:23.714Z,7.60
2018-12-31T19:15:52.254Z,7.70
2018-12-31T19:18:20.805Z,7.80
2018-12-31T19:20:49.394Z,7.90
2018-12-31T19:23:17.991Z,7.90
2018-12-31T19:25:46.537Z,8.10
2018-12-31T19:28:15.070Z,8.00
2018-12-31T19:30:43.714Z,8.10
2018-12-31T19:33:12.255Z,8.10
2018-12-31T19:35:40.921Z,8.10
2018-12-31T19:38:09.520Z,8.00
2018-12-31T19:40:38.019Z,7.80
2018-12-31T19:43:06.903Z,7.90
2018-12-31T19:45:35.437Z,7.80
2018-12-31T19:48:04.020Z,7.80
2018-12-31T19:50:32.597Z,7.70
2018-12-31T19:53:01.187Z,7.70
2018-12-31T19:55:29.730Z,7.70
2018-12-31T19:57:58.321Z,7.70
2018-12-31T20:03:22.733Z,7.70
2018-12-31T20:05:51.348Z,7.80
2018-12-31T20:08:19.923Z,7.80
2018-12-31T20:10:48.458Z,7.80
2018-12-31T20:13:17.040Z,7.70
2018-12-31T20:15:48.701Z,7.70
2018-12-31T20:18:16.141Z,7.80
2018-12-31T20:20:44.770Z,7.80
2018-12-31T20:23:13.346Z,7.90
2018-12-31T20:25:41.881Z,8.00
2018-12-31T20:28:10.461Z,8.00
2018-12-31T20:30:39.721Z,8.00
2018-12-31T20:33:08.274Z,8.00
2018-12-31T20:35:36.917Z,8.00
2018-12-31T20:38:05.458Z,7.90
2018-12-31T20:40:34.051Z,7.90
2018-12-31T20:43:02.585Z,7.90
2018-12-31T20:45:31.470Z,7.90
2018-12-31T20:48:01.882Z,7.80
2018-12-31T20:50:30.430Z,7.60
2018-12-31T20:52:58.971Z,7.80
2018-12-31T20:55:27.539Z,7.90
2018-12-31T20:57:56.073Z,7.80
2018-12-31T21:00:24.647Z,7.90
2018-12-31T21:02:53.198Z,7.80
2018-12-31T21:05:21.766Z,7.70
2018-12-31T21:07:50.312Z,7.80
2018-12-31T21:10:18.873Z,7.80
2018-12-31T21:12:47.719Z,7.70
2018-12-31T21:15:16.414Z,7.80
2018-12-31T21:17:45.341Z,7.80
2018-12-31T21:20:13.906Z,7.80
2018-12-31T21:22:42.462Z,7.70
2018-12-31T21:25:11.336Z,7.80
2018-12-31T21:27:39.877Z,7.70
2018-12-31T21:30:10.380Z,7.50
2018-12-31T21:32:38.922Z,7.50
2018-12-31T21:35:08.150Z,7.50
2018-12-31T21:37:36.702Z,7.60
2018-12-31T21:40:07.818Z,7.60
2018-12-31T21:42:36.363Z,7.50
2018-12-31T21:45:05.200Z,7.40
2018-12-31T21:47:33.745Z,7.40
2018-12-31T21:50:02.736Z,7.70
2018-12-31T21:52:31.275Z,7.60
2018-12-31T21:54:59.837Z,7.50
2018-12-31T21:57:28.383Z,7.40
2018-12-31T21:59:56.920Z,7.40
2018-12-31T22:02:25.491Z,7.50
2018-12-31T22:04:54.437Z,7.50
2018-12-31T22:07:23.008Z,7.60
2018-12-31T22:09:51.555Z,7.80
2018-12-31T22:12:20.122Z,7.80
2018-12-31T22:14:48.666Z,7.80
2018-12-31T22:17:17.231Z,7.80
2018-12-31T22:19:45.776Z,7.90
2018-12-31T22:22:14.342Z,7.80
2018-12-31T22:24:42.892Z,7.90
2018-12-31T22:27:11.476Z,7.90
2018-12-31T22:29:40.039Z,7.90
2018-12-31T22:32:10.391Z,7.70
2018-12-31T22:34:39.065Z,7.80
2018-12-31T22:37:07.638Z,7.60
2018-12-31T22:39:36.187Z,7.70
2018-12-31T22:42:04.762Z,7.80
2018-12-31T22:44:33.699Z,7.70
2018-12-31T22:47:02.266Z,7.70
2018-12-31T22:49:30.803Z,7.70
2018-12-31T22:51:59.372Z,7.70
2018-12-31T22:54:27.912Z,7.70
2018-12-31T22:56:56.777Z,7.70
2018-12-31T22:59:25.312Z,7.60
2018-12-31T23:01:53.882Z,7.70
2018-12-31T23:04:22.429Z,7.70
2018-12-31T23:06:53.111Z,7.80
2018-12-31T23:09:21.957Z,7.70
2018-12-31T23:11:50.539Z,7.80
2018-12-31T23:14:19.095Z,7.80
2018-12-31T23:16:47.679Z,7.80
2018-12-31T23:19:16.371Z,7.70
2018-12-31T23:21:44.952Z,7.70
2018-12-31T23:24:13.507Z,7.60
2018-12-31T23:26:42.078Z,7.70
2018-12-31T23:29:10.622Z,7.80
2018-12-31T23:31:39.207Z,7.80
2018-12-31T23:34:07.758Z,7.60
2018-12-31T23:36:36.928Z,7.60
2018-12-31T23:39:06.917Z,7.60
2018-12-31T23:41:35.471Z,7.50
2018-12-31T23:44:04.113Z,7.50
2018-12-31T23:46:32.674Z,7.60
2018-12-31T23:49:01.544Z,7.60
2018-12-31T23:51:30.097Z,7.70
2018-12-31T23:53:58.664Z,7.70
2018-12-31T23:56:27.215Z,7.60
2018-12-31T23:58:55.788Z,7.50
